sensor_id;sensor_type;location;lat;lon;timestamp;temperature;humidity
24744;DHT22;12844;52.110;5.548;2022-12-18T00:01:50;19.60;42.70
24744;DHT22;12844;52.110;5.548;2022-12-18T00:04:21;19.60;42.40
24744;DHT22;12844;52.110;5.548;2022-12-18T00:06:47;19.60;42.00
24744;DHT22;12844;52.110;5.548;2022-12-18T00:09:13;19.50;42.00
24744;DHT22;12844;52.110;5.548;2022-12-18T00:11:38;19.50;42.00
24744;DHT22;12844;52.110;5.548;2022-12-18T00:14:04;19.50;42.00
24744;DHT22;12844;52.110;5.548;2022-12-18T00:16:30;19.50;42.00
24744;DHT22;12844;52.110;5.548;2022-12-18T00:18:58;19.50;41.90
24744;DHT22;12844;52.110;5.548;2022-12-18T00:21:24;19.50;41.90
24744;DHT22;12844;52.110;5.548;2022-12-18T00:23:50;19.50;42.00
24744;DHT22;12844;52.110;5.548;2022-12-18T00:26:24;19.40;42.00
24744;DHT22;12844;52.110;5.548;2022-12-18T00:28:51;19.40;42.10
24744;DHT22;12844;52.110;5.548;2022-12-18T00:31:20;19.40;42.10
24744;DHT22;12844;52.110;5.548;2022-12-18T00:33:46;19.40;42.00
24744;DHT22;12844;52.110;5.548;2022-12-18T00:36:15;19.40;42.20
24744;DHT22;12844;52.110;5.548;2022-12-18T00:38:42;19.40;42.10
24744;DHT22;12844;52.110;5.548;2022-12-18T00:41:09;19.30;42.10
24744;DHT22;12844;52.110;5.548;2022-12-18T00:43:36;19.30;42.10
24744;DHT22;12844;52.110;5.548;2022-12-18T00:46:02;19.30;41.80
24744;DHT22;12844;52.110;5.548;2022-12-18T00:48:28;19.30;41.90
24744;DHT22;12844;52.110;5.548;2022-12-18T00:50:53;19.20;42.30
24744;DHT22;12844;52.110;5.548;2022-12-18T00:53:19;19.10;42.50
24744;DHT22;12844;52.110;5.548;2022-12-18T00:55:45;19.10;42.30
24744;DHT22;12844;52.110;5.548;2022-12-18T00:58:11;19.20;42.20
24744;DHT22;12844;52.110;5.548;2022-12-18T01:00:37;19.10;42.40
24744;DHT22;12844;52.110;5.548;2022-12-18T01:03:03;19.10;42.40
24744;DHT22;12844;52.110;5.548;2022-12-18T01:05:29;19.10;42.30
24744;DHT22;12844;52.110;5.548;2022-12-18T01:07:56;19.10;42.40
24744;DHT22;12844;52.110;5.548;2022-12-18T01:10:22;19.10;42.40
24744;DHT22;12844;52.110;5.548;2022-12-18T01:12:48;19.10;42.40
24744;DHT22;12844;52.110;5.548;2022-12-18T01:15:15;19.00;42.40
24744;DHT22;12844;52.110;5.548;2022-12-18T01:17:40;19.00;42.30
24744;DHT22;12844;52.110;5.548;2022-12-18T01:20:07;19.00;42.40
24744;DHT22;12844;52.110;5.548;2022-12-18T01:22:34;19.00;42.40
24744;DHT22;12844;52.110;5.548;2022-12-18T01:24:59;19.00;42.40
24744;DHT22;12844;52.110;5.548;2022-12-18T01:27:25;19.00;42.40
24744;DHT22;12844;52.110;5.548;2022-12-18T01:29:51;18.90;42.40
24744;DHT22;12844;52.110;5.548;2022-12-18T01:32:16;18.90;42.40
24744;DHT22;12844;52.110;5.548;2022-12-18T01:34:42;19.00;42.50
24744;DHT22;12844;52.110;5.548;2022-12-18T01:37:07;18.90;42.70
24744;DHT22;12844;52.110;5.548;2022-12-18T01:39:33;18.80;42.60
24744;DHT22;12844;52.110;5.548;2022-12-18T01:42:00;18.90;42.50
24744;DHT22;12844;52.110;5.548;2022-12-18T01:50:15;18.90;42.50
24744;DHT22;12844;52.110;5.548;2022-12-18T01:52:51;18.90;42.50
24744;DHT22;12844;52.110;5.548;2022-12-18T01:55:20;18.90;42.40
24744;DHT22;12844;52.110;5.548;2022-12-18T01:57:47;18.90;42.30
24744;DHT22;12844;52.110;5.548;2022-12-18T02:00:19;18.80;42.30
24744;DHT22;12844;52.110;5.548;2022-12-18T02:02:46;18.80;42.20
24744;DHT22;12844;52.110;5.548;2022-12-18T02:05:17;18.80;42.20
24744;DHT22;12844;52.110;5.548;2022-12-18T02:07:58;18.80;42.30
24744;DHT22;12844;52.110;5.548;2022-12-18T02:10:30;18.80;42.20
24744;DHT22;12844;52.110;5.548;2022-12-18T02:13:19;18.70;42.20
24744;DHT22;12844;52.110;5.548;2022-12-18T02:18:30;18.70;42.20
24744;DHT22;12844;52.110;5.548;2022-12-18T02:21:23;18.70;42.20
24744;DHT22;12844;52.110;5.548;2022-12-18T02:24:14;18.60;42.20
24744;DHT22;12844;52.110;5.548;2022-12-18T02:26:47;18.60;42.90
24744;DHT22;12844;52.110;5.548;2022-12-18T02:29:33;18.70;42.10
24744;DHT22;12844;52.110;5.548;2022-12-18T02:32:00;18.80;42.10
24744;DHT22;12844;52.110;5.548;2022-12-18T02:34:30;18.80;42.10
24744;DHT22;12844;52.110;5.548;2022-12-18T02:36:58;18.90;42.90
24744;DHT22;12844;52.110;5.548;2022-12-18T02:39:26;19.00;42.20
24744;DHT22;12844;52.110;5.548;2022-12-18T02:41:52;19.20;42.30
24744;DHT22;12844;52.110;5.548;2022-12-18T02:44:18;19.30;42.20
24744;DHT22;12844;52.110;5.548;2022-12-18T02:46:50;19.50;42.10
24744;DHT22;12844;52.110;5.548;2022-12-18T02:49:44;19.70;41.90
24744;DHT22;12844;52.110;5.548;2022-12-18T02:55:25;20.10;41.40
24744;DHT22;12844;52.110;5.548;2022-12-18T02:57:54;20.20;41.10
24744;DHT22;12844;52.110;5.548;2022-12-18T03:00:24;20.20;41.10
24744;DHT22;12844;52.110;5.548;2022-12-18T03:05:22;20.20;41.10
24744;DHT22;12844;52.110;5.548;2022-12-18T03:10:25;20.20;41.00
24744;DHT22;12844;52.110;5.548;2022-12-18T03:12:58;20.10;40.90
24744;DHT22;12844;52.110;5.548;2022-12-18T03:15:30;20.20;41.00
24744;DHT22;12844;52.110;5.548;2022-12-18T03:18:01;20.10;40.90
24744;DHT22;12844;52.110;5.548;2022-12-18T03:20:31;20.20;40.90
24744;DHT22;12844;52.110;5.548;2022-12-18T03:23:07;20.20;40.90
24744;DHT22;12844;52.110;5.548;2022-12-18T03:25:37;20.20;40.90
24744;DHT22;12844;52.110;5.548;2022-12-18T03:28:05;20.10;40.90
24744;DHT22;12844;52.110;5.548;2022-12-18T03:30:37;20.00;41.00
24744;DHT22;12844;52.110;5.548;2022-12-18T03:33:27;20.00;41.00
24744;DHT22;12844;52.110;5.548;2022-12-18T03:35:53;19.90;41.00
24744;DHT22;12844;52.110;5.548;2022-12-18T03:38:19;19.90;41.00
24744;DHT22;12844;52.110;5.548;2022-12-18T03:41:11;19.80;41.00
24744;DHT22;12844;52.110;5.548;2022-12-18T03:43:57;19.70;41.10
24744;DHT22;12844;52.110;5.548;2022-12-18T03:46:35;19.60;41.20
24744;DHT22;12844;52.110;5.548;2022-12-18T03:49:09;19.60;41.30
24744;DHT22;12844;52.110;5.548;2022-12-18T03:51:52;19.60;41.30
24744;DHT22;12844;52.110;5.548;2022-12-18T03:54:20;19.70;41.20
24744;DHT22;12844;52.110;5.548;2022-12-18T03:56:51;19.60;41.10
24744;DHT22;12844;52.110;5.548;2022-12-18T03:59:19;19.60;41.10
24744;DHT22;12844;52.110;5.548;2022-12-18T04:01:48;19.50;41.10
24744;DHT22;12844;52.110;5.548;2022-12-18T04:04:16;19.50;41.10
24744;DHT22;12844;52.110;5.548;2022-12-18T04:06:43;19.50;41.30
24744;DHT22;12844;52.110;5.548;2022-12-18T04:09:10;19.40;41.20
24744;DHT22;12844;52.110;5.548;2022-12-18T04:11:36;19.40;41.60
24744;DHT22;12844;52.110;5.548;2022-12-18T04:14:01;19.30;41.90
24744;DHT22;12844;52.110;5.548;2022-12-18T04:16:27;19.20;41.90
24744;DHT22;12844;52.110;5.548;2022-12-18T04:18:53;19.20;42.00
24744;DHT22;12844;52.110;5.548;2022-12-18T04:21:19;19.10;41.90
24744;DHT22;12844;52.110;5.548;2022-12-18T04:23:45;19.10;42.00
24744;DHT22;12844;52.110;5.548;2022-12-18T04:26:11;19.10;42.00
24744;DHT22;12844;52.110;5.548;2022-12-18T04:28:36;19.10;41.70
24744;DHT22;12844;52.110;5.548;2022-12-18T04:31:02;19.10;41.70
24744;DHT22;12844;52.110;5.548;2022-12-18T04:33:28;19.10;41.60
24744;DHT22;12844;52.110;5.548;2022-12-18T04:35:53;19.00;41.90
24744;DHT22;12844;52.110;5.548;2022-12-18T04:38:19;19.00;42.30
24744;DHT22;12844;52.110;5.548;2022-12-18T04:40:44;19.00;41.70
24744;DHT22;12844;52.110;5.548;2022-12-18T04:43:10;19.00;41.50
24744;DHT22;12844;52.110;5.548;2022-12-18T04:45:35;18.90;41.60
24744;DHT22;12844;52.110;5.548;2022-12-18T04:48:02;18.90;41.00
24744;DHT22;12844;52.110;5.548;2022-12-18T04:50:29;18.90;41.10
24744;DHT22;12844;52.110;5.548;2022-12-18T04:52:54;18.90;41.10
24744;DHT22;12844;52.110;5.548;2022-12-18T04:55:20;19.00;41.10
24744;DHT22;12844;52.110;5.548;2022-12-18T04:57:46;19.10;41.10
24744;DHT22;12844;52.110;5.548;2022-12-18T05:00:12;19.20;41.10
24744;DHT22;12844;52.110;5.548;2022-12-18T05:02:37;19.40;41.20
24744;DHT22;12844;52.110;5.548;2022-12-18T05:05:03;19.50;41.10
24744;DHT22;12844;52.110;5.548;2022-12-18T05:07:29;19.70;41.10
24744;DHT22;12844;52.110;5.548;2022-12-18T05:09:55;19.80;40.90
24744;DHT22;12844;52.110;5.548;2022-12-18T05:12:24;20.00;40.80
24744;DHT22;12844;52.110;5.548;2022-12-18T05:14:49;20.10;40.70
24744;DHT22;12844;52.110;5.548;2022-12-18T05:17:15;20.20;40.40
24744;DHT22;12844;52.110;5.548;2022-12-18T05:19:41;20.30;40.30
24744;DHT22;12844;52.110;5.548;2022-12-18T05:22:06;20.30;40.10
24744;DHT22;12844;52.110;5.548;2022-12-18T05:24:32;20.30;40.10
24744;DHT22;12844;52.110;5.548;2022-12-18T05:26:58;20.20;40.80
24744;DHT22;12844;52.110;5.548;2022-12-18T05:29:23;20.20;40.10
24744;DHT22;12844;52.110;5.548;2022-12-18T05:31:49;20.20;40.10
24744;DHT22;12844;52.110;5.548;2022-12-18T05:34:14;20.10;40.10
24744;DHT22;12844;52.110;5.548;2022-12-18T05:36:40;20.10;40.10
24744;DHT22;12844;52.110;5.548;2022-12-18T05:39:06;20.10;40.10
24744;DHT22;12844;52.110;5.548;2022-12-18T05:41:31;20.10;40.20
24744;DHT22;12844;52.110;5.548;2022-12-18T05:43:58;20.00;40.10
24744;DHT22;12844;52.110;5.548;2022-12-18T05:46:23;20.00;40.20
24744;DHT22;12844;52.110;5.548;2022-12-18T05:48:50;19.90;40.30
24744;DHT22;12844;52.110;5.548;2022-12-18T05:51:19;19.80;40.30
24744;DHT22;12844;52.110;5.548;2022-12-18T05:53:45;19.80;40.40
24744;DHT22;12844;52.110;5.548;2022-12-18T05:56:14;19.70;40.40
24744;DHT22;12844;52.110;5.548;2022-12-18T05:58:40;19.70;40.40
24744;DHT22;12844;52.110;5.548;2022-12-18T06:01:11;19.60;40.40
24744;DHT22;12844;52.110;5.548;2022-12-18T06:03:37;19.60;41.10
24744;DHT22;12844;52.110;5.548;2022-12-18T06:06:02;19.60;41.20
24744;DHT22;12844;52.110;5.548;2022-12-18T06:08:28;19.50;40.60
24744;DHT22;12844;52.110;5.548;2022-12-18T06:10:54;19.50;40.60
24744;DHT22;12844;52.110;5.548;2022-12-18T06:13:20;19.50;41.10
24744;DHT22;12844;52.110;5.548;2022-12-18T06:15:45;19.50;40.40
24744;DHT22;12844;52.110;5.548;2022-12-18T06:18:11;19.50;40.50
24744;DHT22;12844;52.110;5.548;2022-12-18T06:20:36;19.40;40.50
24744;DHT22;12844;52.110;5.548;2022-12-18T06:23:05;19.40;41.00
24744;DHT22;12844;52.110;5.548;2022-12-18T06:25:31;19.30;40.90
24744;DHT22;12844;52.110;5.548;2022-12-18T06:27:57;19.20;41.20
24744;DHT22;12844;52.110;5.548;2022-12-18T06:30:23;19.20;41.40
24744;DHT22;12844;52.110;5.548;2022-12-18T06:32:49;19.10;41.50
24744;DHT22;12844;52.110;5.548;2022-12-18T06:35:14;19.10;41.60
24744;DHT22;12844;52.110;5.548;2022-12-18T06:37:40;19.00;41.70
24744;DHT22;12844;52.110;5.548;2022-12-18T06:40:06;19.00;41.70
24744;DHT22;12844;52.110;5.548;2022-12-18T06:42:32;18.90;41.70
24744;DHT22;12844;52.110;5.548;2022-12-18T06:44:57;18.90;41.60
24744;DHT22;12844;52.110;5.548;2022-12-18T06:47:23;18.90;41.70
24744;DHT22;12844;52.110;5.548;2022-12-18T06:49:49;18.90;41.60
24744;DHT22;12844;52.110;5.548;2022-12-18T06:52:14;18.90;41.20
24744;DHT22;12844;52.110;5.548;2022-12-18T06:54:40;19.00;40.40
24744;DHT22;12844;52.110;5.548;2022-12-18T06:57:05;18.90;40.50
24744;DHT22;12844;52.110;5.548;2022-12-18T06:59:31;19.00;40.50
24744;DHT22;12844;52.110;5.548;2022-12-18T07:01:56;19.10;40.40
24744;DHT22;12844;52.110;5.548;2022-12-18T07:04:22;19.20;40.60
24744;DHT22;12844;52.110;5.548;2022-12-18T07:06:52;19.30;40.60
24744;DHT22;12844;52.110;5.548;2022-12-18T07:09:17;19.50;40.60
24744;DHT22;12844;52.110;5.548;2022-12-18T07:11:43;19.60;40.50
24744;DHT22;12844;52.110;5.548;2022-12-18T07:14:08;19.80;40.40
24744;DHT22;12844;52.110;5.548;2022-12-18T07:16:34;19.90;40.30
24744;DHT22;12844;52.110;5.548;2022-12-18T07:18:59;20.10;40.10
24744;DHT22;12844;52.110;5.548;2022-12-18T07:21:25;20.20;39.90
24744;DHT22;12844;52.110;5.548;2022-12-18T07:23:50;20.30;39.80
24744;DHT22;12844;52.110;5.548;2022-12-18T07:26:18;20.30;39.70
24744;DHT22;12844;52.110;5.548;2022-12-18T07:28:44;20.30;39.60
24744;DHT22;12844;52.110;5.548;2022-12-18T07:31:13;20.30;40.30
24744;DHT22;12844;52.110;5.548;2022-12-18T07:33:39;20.20;39.60
24744;DHT22;12844;52.110;5.548;2022-12-18T07:36:06;20.20;39.70
24744;DHT22;12844;52.110;5.548;2022-12-18T07:38:33;20.20;39.60
24744;DHT22;12844;52.110;5.548;2022-12-18T07:41:03;20.10;39.70
24744;DHT22;12844;52.110;5.548;2022-12-18T07:43:29;20.10;39.70
24744;DHT22;12844;52.110;5.548;2022-12-18T07:45:54;20.10;39.70
24744;DHT22;12844;52.110;5.548;2022-12-18T07:48:20;20.00;39.70
24744;DHT22;12844;52.110;5.548;2022-12-18T07:50:46;20.00;39.80
24744;DHT22;12844;52.110;5.548;2022-12-18T07:53:11;20.00;39.90
24744;DHT22;12844;52.110;5.548;2022-12-18T07:55:37;19.90;40.00
24744;DHT22;12844;52.110;5.548;2022-12-18T07:58:03;19.80;40.00
24744;DHT22;12844;52.110;5.548;2022-12-18T08:00:30;19.80;40.00
24744;DHT22;12844;52.110;5.548;2022-12-18T08:02:56;19.70;40.00
24744;DHT22;12844;52.110;5.548;2022-12-18T08:05:21;19.70;40.10
24744;DHT22;12844;52.110;5.548;2022-12-18T08:07:47;19.70;40.10
24744;DHT22;12844;52.110;5.548;2022-12-18T08:10:13;19.60;40.10
24744;DHT22;12844;52.110;5.548;2022-12-18T08:12:38;19.60;40.20
24744;DHT22;12844;52.110;5.548;2022-12-18T08:15:04;19.50;40.20
24744;DHT22;12844;52.110;5.548;2022-12-18T08:17:30;19.50;40.20
24744;DHT22;12844;52.110;5.548;2022-12-18T08:19:55;19.50;40.30
24744;DHT22;12844;52.110;5.548;2022-12-18T08:22:21;19.40;40.30
24744;DHT22;12844;52.110;5.548;2022-12-18T08:24:47;19.40;40.20
24744;DHT22;12844;52.110;5.548;2022-12-18T08:27:12;19.40;40.20
24744;DHT22;12844;52.110;5.548;2022-12-18T08:29:38;19.40;40.40
24744;DHT22;12844;52.110;5.548;2022-12-18T08:32:03;19.40;40.30
24744;DHT22;12844;52.110;5.548;2022-12-18T08:34:29;19.30;40.40
24744;DHT22;12844;52.110;5.548;2022-12-18T08:36:55;19.30;40.50
24744;DHT22;12844;52.110;5.548;2022-12-18T08:39:20;19.20;40.50
24744;DHT22;12844;52.110;5.548;2022-12-18T08:41:46;19.20;40.60
24744;DHT22;12844;52.110;5.548;2022-12-18T08:44:31;19.20;40.70
24744;DHT22;12844;52.110;5.548;2022-12-18T08:47:03;19.10;40.90
24744;DHT22;12844;52.110;5.548;2022-12-18T08:49:28;19.00;41.20
24744;DHT22;12844;52.110;5.548;2022-12-18T08:51:55;18.90;41.40
24744;DHT22;12844;52.110;5.548;2022-12-18T08:54:22;18.90;41.20
24744;DHT22;12844;52.110;5.548;2022-12-18T08:56:48;18.90;41.10
24744;DHT22;12844;52.110;5.548;2022-12-18T08:59:15;19.00;40.20
24744;DHT22;12844;52.110;5.548;2022-12-18T09:01:40;19.00;40.20
24744;DHT22;12844;52.110;5.548;2022-12-18T09:04:07;19.00;40.20
24744;DHT22;12844;52.110;5.548;2022-12-18T09:06:32;19.10;40.40
24744;DHT22;12844;52.110;5.548;2022-12-18T09:08:58;19.20;40.50
24744;DHT22;12844;52.110;5.548;2022-12-18T09:11:25;19.30;40.50
24744;DHT22;12844;52.110;5.548;2022-12-18T09:13:52;19.40;40.50
24744;DHT22;12844;52.110;5.548;2022-12-18T09:16:18;19.50;40.50
24744;DHT22;12844;52.110;5.548;2022-12-18T09:18:44;19.70;40.40
24744;DHT22;12844;52.110;5.548;2022-12-18T09:21:12;19.90;40.30
24744;DHT22;12844;52.110;5.548;2022-12-18T09:23:38;20.10;40.30
24744;DHT22;12844;52.110;5.548;2022-12-18T09:26:04;20.10;40.20
24744;DHT22;12844;52.110;5.548;2022-12-18T09:28:30;20.20;40.40
24744;DHT22;12844;52.110;5.548;2022-12-18T09:30:55;20.30;40.10
24744;DHT22;12844;52.110;5.548;2022-12-18T09:33:21;20.30;40.10
24744;DHT22;12844;52.110;5.548;2022-12-18T09:35:46;20.30;40.00
24744;DHT22;12844;52.110;5.548;2022-12-18T09:38:17;20.30;39.90
24744;DHT22;12844;52.110;5.548;2022-12-18T09:40:52;20.30;39.90
24744;DHT22;12844;52.110;5.548;2022-12-18T09:43:31;20.30;39.90
24744;DHT22;12844;52.110;5.548;2022-12-18T09:46:04;20.30;40.10
24744;DHT22;12844;52.110;5.548;2022-12-18T09:48:34;20.20;40.50
24744;DHT22;12844;52.110;5.548;2022-12-18T09:51:13;20.10;40.10
24744;DHT22;12844;52.110;5.548;2022-12-18T09:53:41;20.20;40.50
24744;DHT22;12844;52.110;5.548;2022-12-18T09:56:15;20.20;40.40
24744;DHT22;12844;52.110;5.548;2022-12-18T09:58:57;20.30;40.40
24744;DHT22;12844;52.110;5.548;2022-12-18T10:01:24;20.40;40.70
24744;DHT22;12844;52.110;5.548;2022-12-18T10:03:50;20.50;40.80
24744;DHT22;12844;52.110;5.548;2022-12-18T10:06:32;20.60;40.40
24744;DHT22;12844;52.110;5.548;2022-12-18T10:09:18;20.70;40.40
24744;DHT22;12844;52.110;5.548;2022-12-18T10:12:00;20.70;40.20
24744;DHT22;12844;52.110;5.548;2022-12-18T10:17:45;20.90;40.70
24744;DHT22;12844;52.110;5.548;2022-12-18T10:20:21;20.80;40.50
24744;DHT22;12844;52.110;5.548;2022-12-18T10:26:08;20.70;40.60
24744;DHT22;12844;52.110;5.548;2022-12-18T10:28:36;20.60;40.90
24744;DHT22;12844;52.110;5.548;2022-12-18T10:31:05;20.60;40.50
24744;DHT22;12844;52.110;5.548;2022-12-18T10:33:32;20.60;40.40
24744;DHT22;12844;52.110;5.548;2022-12-18T10:35:58;20.50;40.40
24744;DHT22;12844;52.110;5.548;2022-12-18T10:38:30;20.50;40.30
24744;DHT22;12844;52.110;5.548;2022-12-18T10:46:42;20.40;40.90
24744;DHT22;12844;52.110;5.548;2022-12-18T10:49:22;20.30;41.50
24744;DHT22;12844;52.110;5.548;2022-12-18T10:51:49;20.30;41.40
24744;DHT22;12844;52.110;5.548;2022-12-18T10:54:23;20.20;41.40
24744;DHT22;12844;52.110;5.548;2022-12-18T10:56:49;20.20;41.80
24744;DHT22;12844;52.110;5.548;2022-12-18T10:59:17;20.20;42.70
24744;DHT22;12844;52.110;5.548;2022-12-18T11:01:57;20.20;41.60
24744;DHT22;12844;52.110;5.548;2022-12-18T11:04:32;20.30;41.60
24744;DHT22;12844;52.110;5.548;2022-12-18T11:07:07;20.40;42.20
24744;DHT22;12844;52.110;5.548;2022-12-18T11:09:37;20.50;41.90
24744;DHT22;12844;52.110;5.548;2022-12-18T11:12:04;20.50;41.90
24744;DHT22;12844;52.110;5.548;2022-12-18T11:14:45;20.60;41.90
24744;DHT22;12844;52.110;5.548;2022-12-18T11:17:32;20.80;42.00
24744;DHT22;12844;52.110;5.548;2022-12-18T11:20:06;20.90;41.60
24744;DHT22;12844;52.110;5.548;2022-12-18T11:22:40;21.00;41.30
24744;DHT22;12844;52.110;5.548;2022-12-18T11:25:18;21.20;41.60
24744;DHT22;12844;52.110;5.548;2022-12-18T11:27:53;21.20;40.70
24744;DHT22;12844;52.110;5.548;2022-12-18T11:32:48;21.10;40.60
24744;DHT22;12844;52.110;5.548;2022-12-18T11:36:03;21.10;40.70
24744;DHT22;12844;52.110;5.548;2022-12-18T11:38:42;21.00;40.70
24744;DHT22;12844;52.110;5.548;2022-12-18T11:43:55;20.90;41.40
24744;DHT22;12844;52.110;5.548;2022-12-18T11:46:29;20.90;41.60
24744;DHT22;12844;52.110;5.548;2022-12-18T11:49:01;20.90;41.50
24744;DHT22;12844;52.110;5.548;2022-12-18T11:51:35;21.00;41.50
24744;DHT22;12844;52.110;5.548;2022-12-18T11:54:14;21.10;41.20
24744;DHT22;12844;52.110;5.548;2022-12-18T11:56:55;21.20;41.20
24744;DHT22;12844;52.110;5.548;2022-12-18T11:59:36;21.30;41.10
24744;DHT22;12844;52.110;5.548;2022-12-18T12:02:34;21.40;40.90
24744;DHT22;12844;52.110;5.548;2022-12-18T12:16:37;21.30;40.80
24744;DHT22;12844;52.110;5.548;2022-12-18T12:27:22;21.00;41.00
24744;DHT22;12844;52.110;5.548;2022-12-18T12:30:02;21.00;41.00
24744;DHT22;12844;52.110;5.548;2022-12-18T12:32:51;21.00;41.30
24744;DHT22;12844;52.110;5.548;2022-12-18T12:38:06;20.80;41.60
24744;DHT22;12844;52.110;5.548;2022-12-18T12:40:36;20.90;41.20
24744;DHT22;12844;52.110;5.548;2022-12-18T12:50:48;20.60;41.60
24744;DHT22;12844;52.110;5.548;2022-12-18T12:53:31;20.60;41.70
24744;DHT22;12844;52.110;5.548;2022-12-18T12:55:58;20.60;41.50
24744;DHT22;12844;52.110;5.548;2022-12-18T12:58:52;20.50;41.70
24744;DHT22;12844;52.110;5.548;2022-12-18T13:01:52;20.50;41.60
24744;DHT22;12844;52.110;5.548;2022-12-18T13:04:43;20.40;41.70
24744;DHT22;12844;52.110;5.548;2022-12-18T13:10:48;20.30;42.10
24744;DHT22;12844;52.110;5.548;2022-12-18T13:12:55;20.30;42.20
24744;DHT22;12844;52.110;5.548;2022-12-18T13:15:43;20.30;42.30
24744;DHT22;12844;52.110;5.548;2022-12-18T13:20:51;20.50;42.10
24744;DHT22;12844;52.110;5.548;2022-12-18T13:23:33;20.60;42.20
24744;DHT22;12844;52.110;5.548;2022-12-18T13:31:13;21.10;41.60
24744;DHT22;12844;52.110;5.548;2022-12-18T13:38:47;21.40;41.60
24744;DHT22;12844;52.110;5.548;2022-12-18T13:41:23;21.40;41.50
24744;DHT22;12844;52.110;5.548;2022-12-18T13:43:50;21.40;41.40
24744;DHT22;12844;52.110;5.548;2022-12-18T13:46:43;21.40;41.40
24744;DHT22;12844;52.110;5.548;2022-12-18T13:51:46;21.20;41.90
24744;DHT22;12844;52.110;5.548;2022-12-18T13:56:50;21.20;42.10
24744;DHT22;12844;52.110;5.548;2022-12-18T13:59:25;21.10;42.20
24744;DHT22;12844;52.110;5.548;2022-12-18T14:07:07;20.90;42.50
24744;DHT22;12844;52.110;5.548;2022-12-18T14:09:44;20.90;42.30
24744;DHT22;12844;52.110;5.548;2022-12-18T14:12:27;20.80;42.60
24744;DHT22;12844;52.110;5.548;2022-12-18T14:15:32;20.90;42.50
24744;DHT22;12844;52.110;5.548;2022-12-18T14:17:59;20.80;43.00
24744;DHT22;12844;52.110;5.548;2022-12-18T14:20:27;20.90;43.50
24744;DHT22;12844;52.110;5.548;2022-12-18T14:22:54;20.90;42.80
24744;DHT22;12844;52.110;5.548;2022-12-18T14:25:23;21.00;42.80
24744;DHT22;12844;52.110;5.548;2022-12-18T14:30:35;21.20;42.50
24744;DHT22;12844;52.110;5.548;2022-12-18T14:35:34;21.40;42.20
24744;DHT22;12844;52.110;5.548;2022-12-18T14:40:44;21.50;41.90
24744;DHT22;12844;52.110;5.548;2022-12-18T14:43:10;21.60;42.00
24744;DHT22;12844;52.110;5.548;2022-12-18T14:45:41;21.70;42.10
24744;DHT22;12844;52.110;5.548;2022-12-18T14:51:02;21.80;41.80
24744;DHT22;12844;52.110;5.548;2022-12-18T14:56:00;21.70;41.90
24744;DHT22;12844;52.110;5.548;2022-12-18T14:58:26;21.70;41.80
24744;DHT22;12844;52.110;5.548;2022-12-18T15:00:51;21.70;41.80
24744;DHT22;12844;52.110;5.548;2022-12-18T15:03:20;21.60;41.90
24744;DHT22;12844;52.110;5.548;2022-12-18T15:05:47;21.60;42.00
24744;DHT22;12844;52.110;5.548;2022-12-18T15:08:48;21.40;42.00
24744;DHT22;12844;52.110;5.548;2022-12-18T15:11:55;21.40;42.00
24744;DHT22;12844;52.110;5.548;2022-12-18T15:14:28;21.30;42.30
24744;DHT22;12844;52.110;5.548;2022-12-18T15:16:57;21.30;42.40
24744;DHT22;12844;52.110;5.548;2022-12-18T15:19:37;21.20;42.40
24744;DHT22;12844;52.110;5.548;2022-12-18T15:22:04;21.10;42.50
24744;DHT22;12844;52.110;5.548;2022-12-18T15:24:31;21.20;42.50
24744;DHT22;12844;52.110;5.548;2022-12-18T15:26:58;21.20;43.50
24744;DHT22;12844;52.110;5.548;2022-12-18T15:29:24;21.30;43.50
24744;DHT22;12844;52.110;5.548;2022-12-18T15:32:18;21.40;43.30
24744;DHT22;12844;52.110;5.548;2022-12-18T15:34:44;21.50;43.30
24744;DHT22;12844;52.110;5.548;2022-12-18T15:37:10;21.60;43.30
24744;DHT22;12844;52.110;5.548;2022-12-18T15:39:35;21.70;43.20
24744;DHT22;12844;52.110;5.548;2022-12-18T15:42:01;21.80;43.20
24744;DHT22;12844;52.110;5.548;2022-12-18T15:44:46;21.80;42.00
24744;DHT22;12844;52.110;5.548;2022-12-18T15:47:12;21.80;42.90
24744;DHT22;12844;52.110;5.548;2022-12-18T15:49:38;21.90;43.00
24744;DHT22;12844;52.110;5.548;2022-12-18T15:52:04;21.90;43.00
24744;DHT22;12844;52.110;5.548;2022-12-18T15:54:30;22.00;42.70
24744;DHT22;12844;52.110;5.548;2022-12-18T15:57:15;22.00;42.70
24744;DHT22;12844;52.110;5.548;2022-12-18T15:59:54;22.00;42.90
24744;DHT22;12844;52.110;5.548;2022-12-18T16:02:23;21.90;42.90
24744;DHT22;12844;52.110;5.548;2022-12-18T16:04:50;21.90;43.10
24744;DHT22;12844;52.110;5.548;2022-12-18T16:07:16;21.80;43.20
24744;DHT22;12844;52.110;5.548;2022-12-18T16:09:42;21.80;43.30
24744;DHT22;12844;52.110;5.548;2022-12-18T16:12:15;21.70;43.50
24744;DHT22;12844;52.110;5.548;2022-12-18T16:14:42;21.70;43.40
24744;DHT22;12844;52.110;5.548;2022-12-18T16:17:10;21.60;43.50
24744;DHT22;12844;52.110;5.548;2022-12-18T16:19:35;21.60;43.40
24744;DHT22;12844;52.110;5.548;2022-12-18T16:22:01;21.60;43.30
24744;DHT22;12844;52.110;5.548;2022-12-18T16:24:29;21.50;43.40
24744;DHT22;12844;52.110;5.548;2022-12-18T16:26:57;21.50;43.50
24744;DHT22;12844;52.110;5.548;2022-12-18T16:29:24;21.40;43.60
24744;DHT22;12844;52.110;5.548;2022-12-18T16:31:56;21.40;43.50
24744;DHT22;12844;52.110;5.548;2022-12-18T16:34:23;21.30;43.70
24744;DHT22;12844;52.110;5.548;2022-12-18T16:36:52;21.30;43.70
24744;DHT22;12844;52.110;5.548;2022-12-18T16:39:19;21.30;43.90
24744;DHT22;12844;52.110;5.548;2022-12-18T16:41:45;21.20;43.90
24744;DHT22;12844;52.110;5.548;2022-12-18T16:44:11;21.20;44.00
24744;DHT22;12844;52.110;5.548;2022-12-18T16:46:38;21.20;44.30
24744;DHT22;12844;52.110;5.548;2022-12-18T16:49:04;21.10;44.20
24744;DHT22;12844;52.110;5.548;2022-12-18T16:51:30;21.10;44.10
24744;DHT22;12844;52.110;5.548;2022-12-18T16:53:56;21.00;44.10
24744;DHT22;12844;52.110;5.548;2022-12-18T16:56:21;21.00;45.20
24744;DHT22;12844;52.110;5.548;2022-12-18T16:58:54;21.10;45.40
24744;DHT22;12844;52.110;5.548;2022-12-18T17:01:20;21.20;45.30
24744;DHT22;12844;52.110;5.548;2022-12-18T17:03:54;21.20;45.30
24744;DHT22;12844;52.110;5.548;2022-12-18T17:06:21;21.30;45.30
24744;DHT22;12844;52.110;5.548;2022-12-18T17:08:47;21.30;45.10
24744;DHT22;12844;52.110;5.548;2022-12-18T17:11:13;21.40;45.00
24744;DHT22;12844;52.110;5.548;2022-12-18T17:13:40;21.50;45.10
24744;DHT22;12844;52.110;5.548;2022-12-18T17:16:06;21.60;44.70
24744;DHT22;12844;52.110;5.548;2022-12-18T17:18:33;21.70;44.80
24744;DHT22;12844;52.110;5.548;2022-12-18T17:21:00;21.80;44.60
24744;DHT22;12844;52.110;5.548;2022-12-18T17:23:27;21.80;44.40
24744;DHT22;12844;52.110;5.548;2022-12-18T17:25:57;21.80;44.40
24744;DHT22;12844;52.110;5.548;2022-12-18T17:28:24;21.80;44.40
24744;DHT22;12844;52.110;5.548;2022-12-18T17:30:51;21.80;44.40